Terminal Aerodrome Forecast
Issued by NWS

Home | Current Version | Previous Version | Text Only | Print | Product List | Glossary Off
Versions: 1 2 3 4 5 6 7 8 9 10 11 12 13 14 15 16 17 18 19 20 21 22 23 24

000
FTUS43 KGRB 231728
TAFCWA
TAF
KCWA 231728Z 2318/2418 32005KT P6SM BKN006
     FM240100 31004KT 4SM BR OVC004
     FM240600 31003KT 2SM BR BKN003
      TEMPO 2410/2414 3/4SM BR BKN002
     FM241400 34003KT 3SM BR OVC004
     FM241700 06004KT P6SM BKN007=

USA.gov is the U.S. government's official web portal to all federal, state and local government web resources and services.